Time;durP1;ratioP1;P1;durP2;ratioP2;P2;SDS_P1;SDS_P2;PMS_P1;PMS_P2;Temp;Humidity;BMP_temperature;BMP_pressure;BME280_temperature;BME280_humidity;BME280_pressure;Samples;Min_cycle;Max_cycle;Signal;HPM_P1;HPM_P2
2022/01/19 00:00:10;;;;;;;31.15;20.17;;;5.00;99.90;;;;;;4957733;28;20096;-57
2022/01/19 00:02:36;;;;;;;31.98;20.02;;;5.00;99.90;;;;;;4962808;28;20169;-57
2022/01/19 00:05:02;;;;;;;26.92;17.88;;;5.00;99.90;;;;;;4956137;28;20130;-57
2022/01/19 00:07:28;;;;;;;31.55;17.83;;;5.00;99.90;;;;;;4955748;28;20046;-56
2022/01/19 00:09:53;;;;;;;29.13;18.58;;;4.90;99.90;;;;;;4965313;28;20538;-57
2022/01/19 00:12:19;;;;;;;36.13;21.73;;;4.90;99.90;;;;;;4969403;28;20053;-57
2022/01/19 00:14:45;;;;;;;36.25;23.13;;;4.90;99.90;;;;;;4954198;28;20398;-57
2022/01/19 00:17:10;;;;;;;35.38;19.45;;;4.90;99.90;;;;;;4958703;28;20035;-55
2022/01/19 00:19:36;;;;;;;29.83;17.58;;;5.00;99.90;;;;;;4947637;28;20517;-59
2022/01/19 00:22:02;;;;;;;29.05;18.45;;;4.90;99.90;;;;;;4965939;28;20119;-54
2022/01/19 00:24:28;;;;;;;34.50;18.92;;;4.90;99.90;;;;;;4976662;28;20057;-55
2022/01/19 00:26:53;;;;;;;38.20;21.52;;;4.90;99.90;;;;;;4950101;28;20079;-56
2022/01/19 00:29:19;;;;;;;31.23;16.67;;;4.90;99.90;;;;;;4925736;28;20034;-59
2022/01/19 00:31:45;;;;;;;35.97;20.25;;;4.90;99.90;;;;;;4966203;28;20132;-58
2022/01/19 00:34:10;;;;;;;32.38;19.63;;;4.90;99.90;;;;;;4971578;28;20038;-58
2022/01/19 00:36:36;;;;;;;36.50;21.80;;;4.90;99.90;;;;;;4972684;28;20049;-55
2022/01/19 00:39:02;;;;;;;39.97;20.55;;;4.90;99.90;;;;;;4953556;28;20480;-59
2022/01/19 00:41:28;;;;;;;31.90;18.85;;;4.90;99.90;;;;;;4961460;28;20133;-59
2022/01/19 00:43:53;;;;;;;29.73;17.27;;;4.90;99.90;;;;;;4952259;28;20148;-58
2022/01/19 00:46:19;;;;;;;32.42;18.20;;;4.90;99.90;;;;;;4937982;28;20035;-58
2022/01/19 00:48:44;;;;;;;35.65;19.02;;;4.90;99.90;;;;;;4958729;28;20057;-58
2022/01/19 00:51:10;;;;;;;32.65;17.95;;;4.90;99.90;;;;;;4954239;28;20437;-57
2022/01/19 00:53:36;;;;;;;33.00;18.70;;;4.90;99.90;;;;;;4953644;28;20038;-59
2022/01/19 00:56:02;;;;;;;33.65;19.40;;;4.80;99.90;;;;;;5002453;28;20054;-58
2022/01/19 00:58:27;;;;;;;42.38;27.17;;;4.80;99.90;;;;;;4949723;28;20133;-59
2022/01/19 01:00:53;;;;;;;40.72;24.27;;;4.80;99.90;;;;;;4947509;28;20058;-58
2022/01/19 01:03:19;;;;;;;44.00;29.45;;;4.80;99.90;;;;;;4950502;28;20038;-59
2022/01/19 01:05:45;;;;;;;57.35;32.33;;;4.80;99.90;;;;;;4947096;28;20235;-59
2022/01/19 01:08:10;;;;;;;44.65;28.85;;;4.80;99.90;;;;;;4965948;28;20031;-59
2022/01/19 01:10:42;;;;;;;46.28;27.15;;;4.80;99.90;;;;;;4935674;28;20046;-58
2022/01/19 01:13:22;;;;;;;46.08;26.42;;;4.80;99.90;;;;;;4951569;28;20121;-59
2022/01/19 01:16:00;;;;;;;46.22;25.13;;;4.80;99.90;;;;;;4940069;28;20054;-58
2022/01/19 01:18:27;;;;;;;49.22;27.30;;;4.80;99.90;;;;;;4945739;28;20133;-59
2022/01/19 01:20:55;;;;;;;45.25;24.73;;;4.80;99.90;;;;;;4947018;28;20575;-59
2022/01/19 01:23:23;;;;;;;49.38;22.83;;;4.80;99.90;;;;;;4938898;28;20046;-60
2022/01/19 01:25:50;;;;;;;48.45;25.17;;;4.70;99.90;;;;;;4944984;28;20069;-58
2022/01/19 01:28:16;;;;;;;46.05;24.23;;;4.70;99.90;;;;;;4946304;28;20864;-58
2022/01/19 01:30:43;;;;;;;43.55;24.30;;;4.70;99.90;;;;;;4951874;28;20527;-59
2022/01/19 01:33:10;;;;;;;57.92;25.92;;;4.70;99.90;;;;;;4963379;28;20054;-60
2022/01/19 01:35:37;;;;;;;54.35;27.77;;;4.60;99.90;;;;;;4942036;28;20095;-59
2022/01/19 01:38:04;;;;;;;60.13;28.65;;;4.70;99.90;;;;;;4953448;28;20062;-60
2022/01/19 01:40:34;;;;;;;56.90;26.90;;;4.70;99.90;;;;;;4952942;28;20184;-58
2022/01/19 01:43:01;;;;;;;56.72;27.90;;;4.70;99.90;;;;;;4959124;28;20042;-59
2022/01/19 01:45:31;;;;;;;63.25;27.80;;;4.70;99.90;;;;;;4958677;28;20049;-59
2022/01/19 01:48:18;;;;;;;70.38;30.10;;;4.60;99.90;;;;;;4960339;28;20065;-59
2022/01/19 01:53:32;;;;;;;77.10;34.15;;;4.70;99.90;;;;;;4953383;28;20046;-58
2022/01/19 01:56:13;;;;;;;87.03;32.38;;;4.60;99.90;;;;;;4958583;28;20432;-59
2022/01/19 01:58:49;;;;;;;67.60;31.83;;;4.60;99.90;;;;;;4955408;28;20034;-59
2022/01/19 02:01:15;;;;;;;76.15;32.10;;;4.60;99.90;;;;;;4962343;28;20412;-57
2022/01/19 02:03:42;;;;;;;77.53;29.73;;;4.60;99.90;;;;;;4987688;28;20042;-60
2022/01/19 02:08:49;;;;;;;72.82;30.33;;;4.60;99.90;;;;;;4962448;28;20145;-60
2022/01/19 02:24:05;;;;;;;80.78;34.55;;;4.70;99.90;;;;;;5039293;28;20151;-60
2022/01/19 02:26:51;;;;;;;85.22;33.90;;;4.70;99.90;;;;;;4978338;28;20053;-59
2022/01/19 02:40:12;;;;;;;83.68;32.30;;;4.70;99.90;;;;;;5041258;28;20042;-59
2022/01/19 02:42:51;;;;;;;97.95;35.88;;;4.70;99.90;;;;;;4980409;28;20162;-57
2022/01/19 02:50:30;;;;;;;102.55;42.75;;;4.70;99.90;;;;;;4981157;28;20042;-54
2022/01/19 02:52:55;;;;;;;107.60;42.33;;;4.80;99.90;;;;;;4941034;28;20043;-54
2022/01/19 02:55:22;;;;;;;111.68;44.55;;;4.90;99.90;;;;;;4964214;28;20393;-55
2022/01/19 02:57:48;;;;;;;121.75;46.25;;;4.80;99.90;;;;;;4947683;28;20307;-54
2022/01/19 03:08:47;;;;;;;;;;;4.90;99.90;;;;;;4966163;28;20127;-57
2022/01/19 03:11:16;;;;;;;131.10;41.95;;;4.80;99.90;;;;;;4960285;28;19961;-55
2022/01/19 03:13:42;;;;;;;109.82;38.90;;;4.80;99.90;;;;;;4963012;28;20046;-57
2022/01/19 03:16:08;;;;;;;111.82;37.58;;;4.80;99.90;;;;;;4958187;28;20077;-58
2022/01/19 03:18:34;;;;;;;103.82;37.58;;;4.80;99.90;;;;;;4951512;28;20184;-58
2022/01/19 03:21:00;;;;;;;96.28;34.53;;;4.80;99.90;;;;;;4979395;28;20748;-53
2022/01/19 03:23:26;;;;;;;93.95;34.35;;;4.80;99.90;;;;;;4957302;28;20121;-53
2022/01/19 03:25:53;;;;;;;92.40;34.88;;;4.80;99.90;;;;;;4950477;28;20045;-60
2022/01/19 03:28:19;;;;;;;99.20;35.38;;;4.70;99.90;;;;;;4940150;28;20050;-55
2022/01/19 03:30:47;;;;;;;92.35;33.83;;;4.70;99.90;;;;;;4958879;28;20047;-59
2022/01/19 03:33:13;;;;;;;102.35;35.65;;;4.70;99.90;;;;;;4971266;28;20039;-59
2022/01/19 03:35:39;;;;;;;102.18;36.72;;;4.70;99.90;;;;;;4937823;28;20038;-56
2022/01/19 03:38:07;;;;;;;85.22;33.20;;;4.70;99.90;;;;;;4941048;28;20075;-53
2022/01/19 03:40:33;;;;;;;91.55;32.33;;;4.70;99.90;;;;;;4957637;28;20079;-55
2022/01/19 03:42:58;;;;;;;93.78;32.05;;;4.70;99.90;;;;;;4948340;28;20050;-54
2022/01/19 03:45:24;;;;;;;89.22;31.63;;;4.70;99.90;;;;;;4955964;28;20087;-56
2022/01/19 03:48:05;;;;;;;93.15;31.75;;;4.60;99.90;;;;;;4957013;28;20038;-56
2022/01/19 03:50:31;;;;;;;87.82;30.77;;;4.60;99.90;;;;;;4965066;28;20265;-57
2022/01/19 03:52:57;;;;;;;89.68;33.00;;;4.70;99.90;;;;;;4952586;28;20698;-57
2022/01/19 03:55:22;;;;;;;81.45;29.65;;;4.70;99.90;;;;;;4971969;28;20103;-56
2022/01/19 03:57:48;;;;;;;83.65;29.52;;;4.60;99.90;;;;;;4952994;28;20440;-58
2022/01/19 04:00:15;;;;;;;100.82;32.55;;;4.60;99.90;;;;;;4966108;28;20520;-58
2022/01/19 04:02:41;;;;;;;82.65;29.90;;;4.60;99.90;;;;;;4972398;28;20061;-58
2022/01/19 04:05:17;;;;;;;87.50;29.75;;;4.60;99.90;;;;;;4951866;28;20046;-55
2022/01/19 04:07:42;;;;;;;83.40;30.17;;;4.60;99.90;;;;;;4937277;28;20065;-57
2022/01/19 04:10:08;;;;;;;83.35;30.17;;;4.60;99.90;;;;;;4966936;28;20086;-54
2022/01/19 04:15:10;;;;;;;104.80;32.17;;;4.60;99.90;;;;;;4953091;28;20054;-54
2022/01/19 04:17:41;;;;;;;97.55;29.08;;;4.60;99.90;;;;;;4963682;28;20455;-57
2022/01/19 04:20:07;;;;;;;93.40;29.45;;;4.50;99.90;;;;;;4967797;28;20042;-57
2022/01/19 04:22:32;;;;;;;94.30;30.00;;;4.60;99.90;;;;;;4958478;28;20047;-57
2022/01/19 04:24:58;;;;;;;85.13;29.52;;;4.60;99.90;;;;;;4958959;28;20091;-58
2022/01/19 04:29:57;;;;;;;72.30;28.15;;;4.50;99.90;;;;;;4954341;28;20047;-55
2022/01/19 04:32:31;;;;;;;73.87;26.97;;;4.50;99.90;;;;;;4944421;28;20891;-57
2022/01/19 04:34:57;;;;;;;;;;;4.50;99.90;;;;;;4963444;28;20952;-57
2022/01/19 04:37:37;;;;;;;67.47;25.40;;;4.40;99.90;;;;;;4954707;28;19960;-56
2022/01/19 05:01:46;;;;;;;;;;;4.30;99.90;;;;;;4976702;28;20069;-59
2022/01/19 05:04:30;;;;;;;77.68;27.05;;;4.40;99.90;;;;;;4957230;28;19979;-58
2022/01/19 05:07:09;;;;;;;75.30;28.05;;;4.30;99.90;;;;;;4971546;28;20469;-58
2022/01/19 05:14:45;;;;;;;82.53;27.92;;;4.40;99.90;;;;;;4965152;28;20093;-57
2022/01/19 05:17:11;;;;;;;67.18;25.45;;;4.40;99.90;;;;;;4959018;28;20134;-59
2022/01/19 05:19:37;;;;;;;77.97;28.50;;;4.40;99.90;;;;;;4971646;28;20427;-58
2022/01/19 05:22:03;;;;;;;63.63;25.65;;;4.40;99.90;;;;;;4977666;28;20046;-59
2022/01/19 05:24:29;;;;;;;69.82;27.67;;;4.40;99.90;;;;;;4936646;28;20053;-59
2022/01/19 05:26:55;;;;;;;64.75;26.02;;;4.40;99.90;;;;;;4952104;28;20035;-60
2022/01/19 05:29:21;;;;;;;68.93;26.27;;;4.40;99.90;;;;;;4979443;28;20062;-59
2022/01/19 05:31:46;;;;;;;63.58;26.17;;;4.40;99.90;;;;;;4928656;28;20091;-58
2022/01/19 05:34:12;;;;;;;67.10;27.15;;;4.40;99.90;;;;;;4956483;28;20046;-58
2022/01/19 05:36:38;;;;;;;69.43;26.63;;;4.40;99.90;;;;;;4965656;28;20412;-56
2022/01/19 05:39:05;;;;;;;64.88;25.83;;;4.40;99.90;;;;;;4967211;28;20118;-57
2022/01/19 05:41:32;;;;;;;61.30;26.40;;;4.40;99.90;;;;;;4954499;28;20054;-56
2022/01/19 05:43:58;;;;;;;57.55;25.63;;;4.40;99.90;;;;;;4949211;28;20038;-59
2022/01/19 05:46:23;;;;;;;59.33;25.95;;;4.40;99.90;;;;;;4957959;28;20050;-59
2022/01/19 05:48:49;;;;;;;67.00;25.65;;;4.40;99.90;;;;;;4955962;28;20580;-57
2022/01/19 05:51:15;;;;;;;59.85;25.85;;;4.40;99.90;;;;;;4977041;28;20042;-59
2022/01/19 05:53:41;;;;;;;57.67;25.80;;;4.40;99.90;;;;;;4959537;28;20180;-59
2022/01/19 05:56:07;;;;;;;64.38;28.00;;;4.40;99.90;;;;;;4957678;28;20523;-59
2022/01/19 05:58:33;;;;;;;62.40;25.30;;;4.30;99.90;;;;;;4969724;28;20175;-59
2022/01/19 06:00:59;;;;;;;64.75;26.00;;;4.30;99.90;;;;;;4967021;28;20451;-59
2022/01/19 06:03:25;;;;;;;55.88;24.40;;;4.30;99.90;;;;;;5032914;28;20463;-59
2022/01/19 06:05:51;;;;;;;57.38;25.60;;;4.30;99.90;;;;;;4956626;28;20104;-59
2022/01/19 06:08:28;;;;;;;54.28;23.58;;;4.30;99.90;;;;;;4964036;28;20035;-59
2022/01/19 06:10:55;;;;;;;58.53;24.30;;;4.30;99.90;;;;;;4959269;28;20452;-59
2022/01/19 06:13:22;;;;;;;58.30;24.83;;;4.30;99.90;;;;;;4970303;28;20485;-59
2022/01/19 06:15:49;;;;;;;58.53;25.45;;;4.30;99.90;;;;;;4960918;28;20050;-59
2022/01/19 06:18:16;;;;;;;58.45;24.85;;;4.30;99.90;;;;;;4963701;28;20046;-57
2022/01/19 06:20:43;;;;;;;67.95;26.00;;;4.30;99.90;;;;;;4970856;28;20123;-59
2022/01/19 06:23:09;;;;;;;58.50;25.88;;;4.30;99.90;;;;;;4962191;28;20140;-59
2022/01/19 06:25:35;;;;;;;64.10;26.75;;;4.30;99.90;;;;;;4956710;28;20042;-59
2022/01/19 06:28:01;;;;;;;64.25;25.58;;;4.30;99.90;;;;;;4973558;22;20046;-61
2022/01/19 06:30:27;;;;;;;62.05;26.45;;;4.30;99.90;;;;;;4968916;28;20139;-61
2022/01/19 06:32:53;;;;;;;56.78;25.75;;;4.30;99.90;;;;;;4958191;28;20047;-61
2022/01/19 06:35:19;;;;;;;60.83;28.40;;;4.30;99.90;;;;;;5038363;28;20046;-61
2022/01/19 06:37:45;;;;;;;59.65;27.67;;;4.30;99.90;;;;;;5029183;28;20627;-61
2022/01/19 06:40:14;;;;;;;57.35;25.83;;;4.30;99.90;;;;;;4968009;28;20136;-61
2022/01/19 06:42:40;;;;;;;57.03;28.33;;;4.30;99.90;;;;;;4973437;28;20558;-60
2022/01/19 06:45:07;;;;;;;65.47;28.02;;;4.30;99.90;;;;;;4962173;28;20050;-61
2022/01/19 06:47:33;;;;;;;62.45;27.20;;;4.30;99.90;;;;;;4966793;28;20428;-62
2022/01/19 06:49:59;;;;;;;63.28;28.30;;;4.30;99.90;;;;;;5032532;28;20408;-61
2022/01/19 06:52:25;;;;;;;68.63;28.63;;;4.30;99.90;;;;;;4968966;28;20047;-61
2022/01/19 06:54:51;;;;;;;71.95;28.77;;;4.30;99.90;;;;;;4961509;28;20038;-62
2022/01/19 06:57:16;;;;;;;64.93;28.05;;;4.30;99.90;;;;;;4966136;28;20038;-62
2022/01/19 06:59:42;;;;;;;62.10;27.20;;;4.30;99.90;;;;;;4970813;28;20042;-62
2022/01/19 07:02:09;;;;;;;62.80;27.55;;;4.30;99.90;;;;;;5021321;28;20043;-61
2022/01/19 07:04:36;;;;;;;64.78;27.90;;;4.30;99.90;;;;;;5039078;28;20046;-61
2022/01/19 07:07:02;;;;;;;63.75;28.83;;;4.30;99.90;;;;;;5027016;28;20136;-61
2022/01/19 07:09:29;;;;;;;68.40;29.08;;;4.30;99.90;;;;;;5029553;28;20097;-61
2022/01/19 07:11:55;;;;;;;67.60;27.13;;;4.40;99.90;;;;;;5031141;28;20064;-61
2022/01/19 07:14:21;;;;;;;59.15;27.45;;;4.30;99.90;;;;;;5033784;28;20050;-61
2022/01/19 07:16:47;;;;;;;61.75;26.75;;;4.40;99.90;;;;;;4970742;28;20046;-62
2022/01/19 07:19:13;;;;;;;67.13;28.08;;;4.40;99.90;;;;;;5028544;28;20114;-62
2022/01/19 07:21:40;;;;;;;58.28;26.23;;;4.40;99.90;;;;;;5034634;28;20456;-60
2022/01/19 07:24:06;;;;;;;63.00;28.10;;;4.40;99.90;;;;;;5015306;28;20177;-61
2022/01/19 07:26:31;;;;;;;71.50;31.17;;;4.40;99.90;;;;;;5021810;28;20479;-61
2022/01/19 07:28:57;;;;;;;61.80;28.42;;;4.40;99.90;;;;;;5033136;28;20047;-61
2022/01/19 07:31:23;;;;;;;70.28;28.80;;;4.40;99.90;;;;;;5027518;28;20061;-60
2022/01/19 07:33:49;;;;;;;72.78;31.35;;;4.50;99.90;;;;;;5029576;28;20070;-61
2022/01/19 07:36:16;;;;;;;68.82;30.23;;;4.50;99.90;;;;;;5033018;28;20046;-62
2022/01/19 07:38:42;;;;;;;66.90;29.52;;;4.40;99.90;;;;;;5032032;28;20078;-62
2022/01/19 07:41:09;;;;;;;65.22;30.20;;;4.40;99.90;;;;;;4953996;28;20523;-61
2022/01/19 07:43:35;;;;;;;71.45;30.77;;;4.50;99.90;;;;;;4974714;28;20046;-61
2022/01/19 07:46:00;;;;;;;68.07;31.10;;;4.50;99.90;;;;;;5034809;28;20100;-62
2022/01/19 07:48:26;;;;;;;76.13;31.17;;;4.50;99.90;;;;;;5035544;28;20408;-62
2022/01/19 07:50:52;;;;;;;68.35;31.73;;;4.50;99.90;;;;;;4955467;28;22256;-61
2022/01/19 07:53:18;;;;;;;73.63;31.52;;;4.50;99.90;;;;;;4971904;28;20150;-62
2022/01/19 07:55:45;;;;;;;72.43;30.33;;;4.50;99.90;;;;;;4967711;28;20038;-60
2022/01/19 07:58:11;;;;;;;73.07;32.33;;;4.50;99.90;;;;;;5032540;28;20041;-60
2022/01/19 08:00:38;;;;;;;75.93;31.02;;;4.50;99.90;;;;;;5029025;28;20439;-61
2022/01/19 08:03:04;;;;;;;70.15;31.05;;;4.50;99.90;;;;;;5037242;28;20039;-61
2022/01/19 08:05:31;;;;;;;65.55;31.73;;;4.50;99.90;;;;;;5033945;28;20156;-61
2022/01/19 08:07:56;;;;;;;71.43;30.67;;;4.50;99.90;;;;;;4967169;28;20633;-60
2022/01/19 08:10:22;;;;;;;78.47;32.58;;;4.50;99.90;;;;;;5034721;28;20049;-61
2022/01/19 08:12:51;;;;;;;75.28;33.95;;;4.50;99.90;;;;;;5036179;28;20466;-62
2022/01/19 08:15:16;;;;;;;78.57;32.72;;;4.60;99.90;;;;;;4968195;28;20043;-61
2022/01/19 08:17:43;;;;;;;78.10;33.65;;;4.60;99.90;;;;;;4972049;28;20053;-59
2022/01/19 08:20:10;;;;;;;72.97;32.05;;;4.60;99.90;;;;;;5029463;28;20062;-56
2022/01/19 08:22:35;;;;;;;80.88;33.47;;;4.60;99.90;;;;;;4974474;28;20041;-58
2022/01/19 08:25:02;;;;;;;72.43;33.92;;;4.60;99.90;;;;;;4956454;28;20321;-56
2022/01/19 08:27:27;;;;;;;74.75;32.38;;;4.60;99.90;;;;;;5035206;28;20366;-58
2022/01/19 08:29:53;;;;;;;70.80;32.63;;;4.70;99.90;;;;;;4962433;28;20038;-58
2022/01/19 08:32:19;;;;;;;75.20;32.55;;;4.70;99.90;;;;;;5041275;28;20039;-56
2022/01/19 08:34:45;;;;;;;76.90;32.53;;;4.80;99.90;;;;;;5031484;28;20126;-58
2022/01/19 08:37:14;;;;;;;68.88;33.50;;;4.70;99.90;;;;;;5024087;28;20039;-58
2022/01/19 08:39:42;;;;;;;69.60;31.55;;;4.80;99.90;;;;;;5037716;28;20412;-59
2022/01/19 08:42:08;;;;;;;73.50;34.10;;;4.80;99.90;;;;;;5021347;28;22193;-57
2022/01/19 08:44:34;;;;;;;73.13;31.85;;;4.80;99.90;;;;;;4970952;28;20045;-58
2022/01/19 08:47:00;;;;;;;74.18;32.92;;;4.90;99.90;;;;;;5025913;28;20138;-58
2022/01/19 08:49:26;;;;;;;73.97;34.60;;;4.90;99.90;;;;;;4968089;28;20046;-58
2022/01/19 08:51:51;;;;;;;65.50;31.52;;;4.90;99.90;;;;;;4967154;28;20049;-56
2022/01/19 08:54:17;;;;;;;71.97;33.40;;;4.90;99.90;;;;;;4965652;28;20079;-56
2022/01/19 08:56:43;;;;;;;68.28;32.28;;;4.90;99.90;;;;;;4972015;28;20398;-57
2022/01/19 08:59:09;;;;;;;67.20;31.42;;;4.90;99.90;;;;;;5029874;28;20042;-55
2022/01/19 09:01:35;;;;;;;70.70;33.63;;;4.90;99.90;;;;;;5035160;28;20459;-59
2022/01/19 09:04:01;;;;;;;71.80;32.00;;;4.90;99.90;;;;;;5018694;28;20038;-57
2022/01/19 09:06:27;;;;;;;76.03;32.42;;;5.00;99.90;;;;;;4960311;28;20053;-59
2022/01/19 09:08:52;;;;;;;62.88;32.38;;;5.00;99.90;;;;;;5026046;28;20050;-56
2022/01/19 09:11:18;;;;;;;71.80;32.90;;;5.00;99.90;;;;;;5025631;28;20493;-56
2022/01/19 09:13:44;;;;;;;75.30;33.70;;;5.00;99.90;;;;;;5021602;28;20124;-55
2022/01/19 09:16:10;;;;;;;68.95;32.13;;;5.00;99.90;;;;;;5030053;28;20126;-59
2022/01/19 09:18:36;;;;;;;68.63;31.52;;;5.00;99.90;;;;;;5033984;28;20069;-59
2022/01/19 09:21:02;;;;;;;75.25;33.60;;;5.10;99.90;;;;;;4975500;28;21036;-57
2022/01/19 09:23:28;;;;;;;72.28;33.38;;;5.00;99.90;;;;;;4974738;28;20043;-58
2022/01/19 09:25:53;;;;;;;75.95;35.13;;;5.00;99.90;;;;;;4980670;28;20042;-57
2022/01/19 09:28:19;;;;;;;72.97;32.55;;;5.00;99.90;;;;;;4978806;28;20152;-58
2022/01/19 09:30:45;;;;;;;70.70;34.15;;;5.00;99.90;;;;;;4972550;28;20030;-58
2022/01/19 09:33:19;;;;;;;74.60;35.30;;;5.00;99.90;;;;;;5043998;28;20039;-59
2022/01/19 09:35:53;;;;;;;72.50;35.72;;;5.00;99.90;;;;;;5025563;28;20552;-58
2022/01/19 09:38:21;;;;;;;76.47;35.08;;;5.00;99.90;;;;;;5028764;28;20049;-58
2022/01/19 09:40:48;;;;;;;76.00;36.42;;;5.00;99.90;;;;;;5025378;28;20050;-58
2022/01/19 09:43:15;;;;;;;72.63;36.20;;;5.10;99.90;;;;;;5040922;28;20041;-59
2022/01/19 09:45:41;;;;;;;75.13;36.30;;;5.10;99.90;;;;;;4975810;28;20430;-59
2022/01/19 09:48:07;;;;;;;72.10;35.15;;;5.10;99.90;;;;;;4983698;28;20039;-59
2022/01/19 09:50:34;;;;;;;76.60;35.53;;;5.10;99.90;;;;;;5040977;28;20095;-57
2022/01/19 09:53:04;;;;;;;76.43;36.08;;;5.10;99.90;;;;;;4972493;28;20043;-56
2022/01/19 09:55:30;;;;;;;76.78;36.92;;;5.10;99.90;;;;;;5029397;28;20053;-55
2022/01/19 09:57:55;;;;;;;72.18;35.70;;;5.10;99.90;;;;;;4974745;28;20644;-57
2022/01/19 10:00:21;;;;;;;80.70;38.03;;;5.10;99.90;;;;;;5050877;28;20129;-60
2022/01/19 10:03:21;;;;;;;80.40;36.08;;;5.20;99.90;;;;;;5040504;28;20034;-57
2022/01/19 10:05:54;;;;;;;81.63;37.83;;;5.20;99.90;;;;;;5044256;28;20158;-60
2022/01/19 10:08:33;;;;;;;70.05;32.97;;;5.20;99.90;;;;;;4974192;28;20146;-60
2022/01/19 10:11:05;;;;;;;77.72;37.50;;;5.20;99.90;;;;;;4987945;28;20503;-60
2022/01/19 10:19:13;;;;;;;72.25;34.83;;;5.30;99.90;;;;;;4978131;28;20050;-60
2022/01/19 10:21:59;;;;;;;79.15;35.72;;;5.30;99.90;;;;;;5044318;28;20199;-58
2022/01/19 10:24:50;;;;;;;72.50;35.08;;;5.40;99.90;;;;;;4985405;28;20046;-60
2022/01/19 10:27:36;;;;;;;78.30;36.95;;;5.40;99.90;;;;;;5046044;28;20054;-58
2022/01/19 10:30:04;;;;;;;78.63;38.40;;;5.40;99.90;;;;;;4986194;28;20476;-59
2022/01/19 10:32:33;;;;;;;76.93;37.50;;;5.40;99.90;;;;;;4982569;28;20042;-60
2022/01/19 10:35:12;;;;;;;81.35;36.70;;;5.40;99.90;;;;;;4991653;28;20517;-60
2022/01/19 10:37:37;;;;;;;72.93;36.40;;;5.50;99.90;;;;;;4985625;28;20148;-60
2022/01/19 10:40:04;;;;;;;78.10;35.92;;;5.50;99.90;;;;;;5051181;28;20039;-59
2022/01/19 10:42:34;;;;;;;74.88;37.35;;;5.50;99.90;;;;;;4981356;28;20041;-59
2022/01/19 10:45:05;;;;;;;71.57;35.67;;;5.60;99.90;;;;;;4984661;28;20405;-58
2022/01/19 10:47:58;;;;;;;71.78;34.53;;;5.60;99.90;;;;;;4988427;28;20397;-60
2022/01/19 10:50:28;;;;;;;70.82;35.70;;;5.60;99.90;;;;;;5043545;28;20064;-57
2022/01/19 10:52:55;;;;;;;66.80;35.17;;;5.70;99.90;;;;;;4990113;28;20061;-59
2022/01/19 10:55:25;;;;;;;70.90;35.08;;;5.70;99.90;;;;;;5028106;28;20039;-59
2022/01/19 10:57:55;;;;;;;71.10;34.90;;;5.70;99.90;;;;;;5037140;28;20050;-59
2022/01/19 11:00:28;;;;;;;68.47;35.28;;;5.70;99.90;;;;;;4989269;28;20117;-60
2022/01/19 11:03:18;;;;;;;69.25;34.03;;;5.80;99.90;;;;;;5054618;28;20049;-58
2022/01/19 11:05:53;;;;;;;70.97;34.17;;;5.80;99.90;;;;;;5039294;28;20058;-59
2022/01/19 11:08:21;;;;;;;71.95;34.88;;;5.80;99.90;;;;;;4981842;28;20507;-59
2022/01/19 11:10:51;;;;;;;78.25;33.90;;;5.80;99.90;;;;;;4986059;28;20134;-58
2022/01/19 11:13:29;;;;;;;65.72;33.20;;;5.90;99.90;;;;;;4979428;28;20055;-60
2022/01/19 11:15:59;;;;;;;68.60;33.58;;;6.00;99.90;;;;;;4986996;28;20539;-59
2022/01/19 11:18:26;;;;;;;66.72;34.05;;;6.10;99.90;;;;;;5042869;28;20151;-57
2022/01/19 11:20:53;;;;;;;69.15;34.55;;;6.20;99.90;;;;;;5057022;28;20038;-59
2022/01/19 11:23:37;;;;;;;66.93;33.75;;;6.30;99.90;;;;;;4981030;28;20045;-57
2022/01/19 11:26:09;;;;;;;61.22;32.30;;;6.40;99.90;;;;;;5045143;28;20045;-59
2022/01/19 11:28:44;;;;;;;63.90;33.80;;;6.60;99.90;;;;;;4987398;28;20129;-57
2022/01/19 11:31:11;;;;;;;62.83;34.20;;;6.70;99.90;;;;;;4981020;28;20078;-60
2022/01/19 11:33:58;;;;;;;60.33;31.95;;;6.70;99.90;;;;;;5047366;28;20634;-60
2022/01/19 11:36:51;;;;;;;61.63;31.73;;;6.70;99.90;;;;;;5040267;28;20046;-59
2022/01/19 11:39:21;;;;;;;54.53;31.10;;;6.60;99.90;;;;;;5044149;28;20046;-56
2022/01/19 11:41:51;;;;;;;67.82;35.55;;;6.50;99.90;;;;;;4979811;28;20041;-59
2022/01/19 11:44:19;;;;;;;71.50;38.15;;;6.50;99.90;;;;;;5047809;28;20053;-59
2022/01/19 11:46:50;;;;;;;116.25;58.67;;;6.40;99.90;;;;;;4979804;28;20047;-59
2022/01/19 11:49:45;;;;;;;118.93;60.42;;;6.40;99.90;;;;;;4981880;28;20042;-58
2022/01/19 11:52:11;;;;;;;121.20;60.58;;;6.40;99.90;;;;;;4985732;28;20481;-59
2022/01/19 11:54:37;;;;;;;104.05;51.55;;;6.30;99.90;;;;;;4977332;28;20059;-58
2022/01/19 11:57:14;;;;;;;71.18;36.83;;;6.30;99.90;;;;;;4984140;28;20472;-58
2022/01/19 11:59:46;;;;;;;68.05;31.77;;;6.30;99.90;;;;;;4983989;28;20051;-58
2022/01/19 12:02:21;;;;;;;66.03;35.53;;;6.30;99.90;;;;;;5038359;28;20051;-61
2022/01/19 12:04:54;;;;;;;87.18;40.60;;;6.30;99.90;;;;;;5064768;28;20046;-60
2022/01/19 12:07:35;;;;;;;99.90;45.65;;;6.30;99.90;;;;;;4991385;28;20045;-59
2022/01/19 12:10:03;;;;;;;74.88;38.13;;;6.20;99.90;;;;;;4973367;28;20108;-58
2022/01/19 12:12:32;;;;;;;60.10;32.38;;;6.30;99.90;;;;;;4983790;28;20030;-59
2022/01/19 12:15:03;;;;;;;60.58;32.20;;;6.30;99.90;;;;;;5042945;28;20038;-58
2022/01/19 12:17:52;;;;;;;62.92;33.63;;;6.30;99.90;;;;;;4988763;28;20043;-55
2022/01/19 12:20:54;;;;;;;62.05;30.70;;;6.30;99.90;;;;;;5040433;28;20074;-60
2022/01/19 12:23:34;;;;;;;67.45;32.13;;;6.30;99.90;;;;;;4917976;28;20186;-59
2022/01/19 12:26:01;;;;;;;59.28;29.45;;;6.30;99.90;;;;;;5029318;28;20691;-58
2022/01/19 12:28:48;;;;;;;53.70;27.42;;;6.30;99.90;;;;;;4995497;23;20054;-57
2022/01/19 12:31:32;;;;;;;55.15;29.58;;;6.30;99.90;;;;;;4978767;28;20419;-58
2022/01/19 12:36:55;;;;;;;48.92;24.20;;;6.30;99.90;;;;;;5000720;28;20065;-57
2022/01/19 12:39:24;;;;;;;46.70;24.25;;;6.40;99.90;;;;;;4998238;28;20034;-60
2022/01/19 12:42:20;;;;;;;44.17;20.33;;;6.40;99.90;;;;;;4988377;28;20074;-58
2022/01/19 12:45:00;;;;;;;39.83;18.75;;;6.50;99.90;;;;;;4993985;28;20061;-60
2022/01/19 12:49:52;;;;;;;30.63;15.82;;;6.50;99.90;;;;;;4995924;28;20046;-59
2022/01/19 12:52:19;;;;;;;35.08;16.80;;;6.50;99.90;;;;;;4977663;28;20046;-59
2022/01/19 12:54:46;;;;;;;32.05;13.70;;;6.50;99.90;;;;;;4981085;28;20077;-58
2022/01/19 12:57:15;;;;;;;31.38;12.93;;;6.50;99.90;;;;;;4991659;28;20154;-59
2022/01/19 12:59:43;;;;;;;28.77;12.05;;;6.50;99.90;;;;;;4997052;28;20495;-59
2022/01/19 13:02:09;;;;;;;35.58;15.27;;;6.50;99.90;;;;;;4989591;28;20637;-60
2022/01/19 13:04:36;;;;;;;38.92;15.13;;;6.50;99.90;;;;;;4999654;28;20121;-60
2022/01/19 13:07:21;;;;;;;60.40;28.65;;;6.50;99.90;;;;;;4987613;28;20404;-59
2022/01/19 13:10:37;;;;;;;57.33;26.88;;;6.50;99.90;;;;;;4998808;28;20721;-60
2022/01/19 13:13:07;;;;;;;50.10;22.10;;;6.50;99.90;;;;;;4983302;28;20087;-58
2022/01/19 13:15:56;;;;;;;41.38;19.65;;;6.50;99.90;;;;;;4990255;28;20054;-60
2022/01/19 13:18:44;;;;;;;38.17;18.00;;;6.50;99.90;;;;;;4994044;28;20711;-59
2022/01/19 13:21:18;;;;;;;24.55;10.85;;;6.50;99.90;;;;;;4991243;28;20077;-60
2022/01/19 13:24:05;;;;;;;26.23;9.77;;;6.50;99.90;;;;;;4989610;28;20098;-56
2022/01/19 13:26:48;;;;;;;27.85;10.40;;;6.50;99.90;;;;;;4998187;28;20051;-59
2022/01/19 13:29:17;;;;;;;25.95;10.00;;;6.50;99.90;;;;;;4984879;28;20042;-59
2022/01/19 13:32:17;;;;;;;25.42;10.48;;;6.50;99.90;;;;;;4979358;28;20042;-59
2022/01/19 13:34:59;;;;;;;20.38;9.02;;;6.50;99.90;;;;;;4978588;28;22589;-59
2022/01/19 13:37:48;;;;;;;27.50;9.93;;;6.50;99.90;;;;;;4975233;28;20504;-59
2022/01/19 13:40:18;;;;;;;31.23;12.77;;;6.50;99.90;;;;;;4993786;28;20050;-59
2022/01/19 13:42:51;;;;;;;32.20;12.02;;;6.50;99.90;;;;;;4983825;28;20049;-58
2022/01/19 13:45:37;;;;;;;25.73;10.00;;;6.50;99.90;;;;;;4988232;28;20724;-58
2022/01/19 13:50:41;;;;;;;20.13;7.97;;;6.50;99.90;;;;;;4982667;28;20050;-57
2022/01/19 13:53:07;;;;;;;22.90;8.93;;;6.50;99.90;;;;;;4976643;28;20050;-58
2022/01/19 13:55:34;;;;;;;23.75;9.40;;;6.50;99.90;;;;;;4981081;28;20043;-60
2022/01/19 13:58:12;;;;;;;24.13;8.38;;;6.50;99.90;;;;;;4987562;28;20129;-59
2022/01/19 14:00:49;;;;;;;25.88;8.60;;;6.50;99.90;;;;;;4982383;28;20053;-59
2022/01/19 14:03:15;;;;;;;24.90;8.68;;;6.50;99.90;;;;;;4997094;28;20136;-58
2022/01/19 14:05:49;;;;;;;25.77;9.60;;;6.40;99.90;;;;;;5005149;27;20037;-59
2022/01/19 14:08:30;;;;;;;28.70;9.70;;;6.40;99.90;;;;;;4990623;28;20034;-59
2022/01/19 14:10:56;;;;;;;29.80;9.75;;;6.40;99.90;;;;;;4991195;28;20287;-59
2022/01/19 14:13:23;;;;;;;33.28;10.60;;;6.40;99.90;;;;;;4986383;28;21408;-58
2022/01/19 14:15:49;;;;;;;28.98;10.68;;;6.40;99.90;;;;;;4996172;28;20065;-59
2022/01/19 14:18:14;;;;;;;29.67;10.60;;;6.40;99.90;;;;;;4977089;28;20469;-58